sensor_id;sensor_type;location;lat;lon;timestamp;temperature;humidity
17968;DHT22;9109;48.050;11.696;2022-08-11T04:29:49;16.60;76.40
17968;DHT22;9109;48.050;11.696;2022-08-11T04:34:54;16.70;76.50
17968;DHT22;9109;48.050;11.696;2022-08-11T04:38:28;16.60;76.40
17968;DHT22;9109;48.050;11.696;2022-08-11T04:50:30;16.30;77.70
17968;DHT22;9109;48.050;11.696;2022-08-11T05:13:59;16.50;77.90
17968;DHT22;9109;48.050;11.696;2022-08-11T05:17:55;16.50;77.90
17968;DHT22;9109;48.050;11.696;2022-08-11T05:21:42;16.30;79.30
17968;DHT22;9109;48.050;11.696;2022-08-11T05:25:24;15.70;82.00
17968;DHT22;9109;48.050;11.696;2022-08-11T05:29:23;15.20;84.30
17968;DHT22;9109;48.050;11.696;2022-08-11T05:33:18;15.00;87.50
17968;DHT22;9109;48.050;11.696;2022-08-11T05:40:59;15.10;91.20
17968;DHT22;9109;48.050;11.696;2022-08-11T05:48:40;15.50;93.40
17968;DHT22;9109;48.050;11.696;2022-08-11T05:52:46;15.60;93.90
17968;DHT22;9109;48.050;11.696;2022-08-11T06:00:55;16.10;96.00
17968;DHT22;9109;48.050;11.696;2022-08-11T06:13:18;16.30;98.20
17968;DHT22;9109;48.050;11.696;2022-08-11T06:16:10;16.30;98.70
17968;DHT22;9109;48.050;11.696;2022-08-11T06:23:54;16.70;99.00
17968;DHT22;9109;48.050;11.696;2022-08-11T06:42:54;17.50;95.50
17968;DHT22;9109;48.050;11.696;2022-08-11T06:52:47;17.60;92.00
17968;DHT22;9109;48.050;11.696;2022-08-11T07:07:00;17.90;91.50
17968;DHT22;9109;48.050;11.696;2022-08-11T07:15:20;18.10;91.00
17968;DHT22;9109;48.050;11.696;2022-08-11T07:18:46;18.30;91.40
17968;DHT22;9109;48.050;11.696;2022-08-11T07:36:08;18.80;88.60
17968;DHT22;9109;48.050;11.696;2022-08-11T07:39:26;19.10;87.50
17968;DHT22;9109;48.050;11.696;2022-08-11T07:42:34;19.30;84.90
17968;DHT22;9109;48.050;11.696;2022-08-11T07:45:50;19.40;86.80
17968;DHT22;9109;48.050;11.696;2022-08-11T07:49:12;19.40;86.80
17968;DHT22;9109;48.050;11.696;2022-08-11T07:52:35;19.70;85.20
17968;DHT22;9109;48.050;11.696;2022-08-11T07:55:59;19.80;83.80
17968;DHT22;9109;48.050;11.696;2022-08-11T07:59:01;19.80;84.60
17968;DHT22;9109;48.050;11.696;2022-08-11T08:02:21;20.00;84.40
17968;DHT22;9109;48.050;11.696;2022-08-11T08:05:41;20.20;84.60
17968;DHT22;9109;48.050;11.696;2022-08-11T08:09:06;20.40;82.80
17968;DHT22;9109;48.050;11.696;2022-08-11T08:12:31;20.60;80.70
17968;DHT22;9109;48.050;11.696;2022-08-11T08:16:02;20.60;81.00
17968;DHT22;9109;48.050;11.696;2022-08-11T08:19:25;20.70;81.10
17968;DHT22;9109;48.050;11.696;2022-08-11T08:22:28;20.60;79.80
17968;DHT22;9109;48.050;11.696;2022-08-11T08:28:54;20.90;80.00
17968;DHT22;9109;48.050;11.696;2022-08-11T08:32:55;21.00;79.20
17968;DHT22;9109;48.050;11.696;2022-08-11T08:35:53;21.00;78.10
17968;DHT22;9109;48.050;11.696;2022-08-11T08:39:11;21.00;77.70
17968;DHT22;9109;48.050;11.696;2022-08-11T08:42:23;21.00;78.50
17968;DHT22;9109;48.050;11.696;2022-08-11T08:46:01;20.90;78.50
17968;DHT22;9109;48.050;11.696;2022-08-11T08:49:22;21.30;76.40
17968;DHT22;9109;48.050;11.696;2022-08-11T08:53:22;21.40;76.40
17968;DHT22;9109;48.050;11.696;2022-08-11T08:56:39;21.50;77.30
17968;DHT22;9109;48.050;11.696;2022-08-11T09:00:00;21.60;76.20
17968;DHT22;9109;48.050;11.696;2022-08-11T09:03:27;21.70;76.10
17968;DHT22;9109;48.050;11.696;2022-08-11T09:07:10;21.80;74.50
17968;DHT22;9109;48.050;11.696;2022-08-11T09:11:11;21.80;74.20
17968;DHT22;9109;48.050;11.696;2022-08-11T09:14:32;22.00;74.40
17968;DHT22;9109;48.050;11.696;2022-08-11T09:18:07;22.00;72.50
17968;DHT22;9109;48.050;11.696;2022-08-11T09:21:29;22.10;72.60
17968;DHT22;9109;48.050;11.696;2022-08-11T09:24:52;22.10;72.20
17968;DHT22;9109;48.050;11.696;2022-08-11T09:28:24;22.30;71.80
17968;DHT22;9109;48.050;11.696;2022-08-11T09:35:33;22.40;71.00
17968;DHT22;9109;48.050;11.696;2022-08-11T09:39:20;22.50;69.60
17968;DHT22;9109;48.050;11.696;2022-08-11T09:43:46;22.50;70.60
17968;DHT22;9109;48.050;11.696;2022-08-11T09:46:26;22.70;70.10
17968;DHT22;9109;48.050;11.696;2022-08-11T09:49:44;23.00;70.30
17968;DHT22;9109;48.050;11.696;2022-08-11T09:53:03;23.20;69.60
17968;DHT22;9109;48.050;11.696;2022-08-11T09:56:29;23.10;67.30
17968;DHT22;9109;48.050;11.696;2022-08-11T10:03:26;23.10;66.30
17968;DHT22;9109;48.050;11.696;2022-08-11T10:10:16;23.60;69.80
17968;DHT22;9109;48.050;11.696;2022-08-11T10:13:32;23.70;66.60
17968;DHT22;9109;48.050;11.696;2022-08-11T10:17:10;23.50;66.80
17968;DHT22;9109;48.050;11.696;2022-08-11T10:20:13;23.50;65.50
17968;DHT22;9109;48.050;11.696;2022-08-11T10:23:18;23.50;64.30
17968;DHT22;9109;48.050;11.696;2022-08-11T10:26:43;23.60;65.00
17968;DHT22;9109;48.050;11.696;2022-08-11T10:30:02;23.80;64.70
17968;DHT22;9109;48.050;11.696;2022-08-11T10:33:21;23.80;64.20
17968;DHT22;9109;48.050;11.696;2022-08-11T10:36:43;23.90;65.10
17968;DHT22;9109;48.050;11.696;2022-08-11T10:40:07;24.10;66.10
17968;DHT22;9109;48.050;11.696;2022-08-11T10:43:23;24.30;66.00
17968;DHT22;9109;48.050;11.696;2022-08-11T10:46:25;24.30;63.30
17968;DHT22;9109;48.050;11.696;2022-08-11T10:49:46;24.40;64.00
17968;DHT22;9109;48.050;11.696;2022-08-11T10:53:09;24.40;62.90
17968;DHT22;9109;48.050;11.696;2022-08-11T10:56:31;24.40;62.90
17968;DHT22;9109;48.050;11.696;2022-08-11T10:59:52;24.40;62.70
17968;DHT22;9109;48.050;11.696;2022-08-11T11:02:56;24.40;63.00
17968;DHT22;9109;48.050;11.696;2022-08-11T11:06:37;24.60;64.00
17968;DHT22;9109;48.050;11.696;2022-08-11T11:09:57;24.60;62.30
17968;DHT22;9109;48.050;11.696;2022-08-11T11:13:33;24.50;62.50
17968;DHT22;9109;48.050;11.696;2022-08-11T11:17:25;24.60;63.60
17968;DHT22;9109;48.050;11.696;2022-08-11T11:20:53;24.60;62.60
17968;DHT22;9109;48.050;11.696;2022-08-11T11:24:29;24.60;62.10
17968;DHT22;9109;48.050;11.696;2022-08-11T11:28:08;24.60;62.00
17968;DHT22;9109;48.050;11.696;2022-08-11T11:31:53;24.70;62.60
17968;DHT22;9109;48.050;11.696;2022-08-11T11:35:29;24.80;63.20
17968;DHT22;9109;48.050;11.696;2022-08-11T11:38:53;25.00;61.90
17968;DHT22;9109;48.050;11.696;2022-08-11T11:42:27;25.20;60.90
17968;DHT22;9109;48.050;11.696;2022-08-11T11:46:00;25.30;59.00
17968;DHT22;9109;48.050;11.696;2022-08-11T11:49:37;25.20;59.40
17968;DHT22;9109;48.050;11.696;2022-08-11T11:53:25;25.20;59.50
17968;DHT22;9109;48.050;11.696;2022-08-11T11:56:58;25.40;59.20
17968;DHT22;9109;48.050;11.696;2022-08-11T12:00:57;25.60;58.30
17968;DHT22;9109;48.050;11.696;2022-08-11T12:04:28;25.70;58.50
17968;DHT22;9109;48.050;11.696;2022-08-11T12:08:01;25.80;59.00
17968;DHT22;9109;48.050;11.696;2022-08-11T12:11:44;25.90;57.10
17968;DHT22;9109;48.050;11.696;2022-08-11T12:15:06;26.00;56.80
17968;DHT22;9109;48.050;11.696;2022-08-11T12:18:21;26.00;56.40
17968;DHT22;9109;48.050;11.696;2022-08-11T12:25:48;26.00;57.30
17968;DHT22;9109;48.050;11.696;2022-08-11T12:29:49;26.10;56.70
17968;DHT22;9109;48.050;11.696;2022-08-11T12:32:55;26.20;56.70
17968;DHT22;9109;48.050;11.696;2022-08-11T12:36:15;26.30;56.40
17968;DHT22;9109;48.050;11.696;2022-08-11T12:39:20;26.50;56.20
17968;DHT22;9109;48.050;11.696;2022-08-11T12:43:03;26.40;56.00
17968;DHT22;9109;48.050;11.696;2022-08-11T12:46:40;26.60;55.40
17968;DHT22;9109;48.050;11.696;2022-08-11T12:49:59;26.30;54.90
17968;DHT22;9109;48.050;11.696;2022-08-11T12:53:25;26.40;55.70
17968;DHT22;9109;48.050;11.696;2022-08-11T12:56:44;26.60;56.20
17968;DHT22;9109;48.050;11.696;2022-08-11T13:00:05;26.60;55.50
17968;DHT22;9109;48.050;11.696;2022-08-11T13:03:25;26.80;56.40
17968;DHT22;9109;48.050;11.696;2022-08-11T13:06:49;26.70;53.90
17968;DHT22;9109;48.050;11.696;2022-08-11T13:10:04;26.70;54.30
17968;DHT22;9109;48.050;11.696;2022-08-11T13:13:46;26.70;54.40
17968;DHT22;9109;48.050;11.696;2022-08-11T13:17:15;26.90;53.10
17968;DHT22;9109;48.050;11.696;2022-08-11T13:20:43;26.80;52.70
17968;DHT22;9109;48.050;11.696;2022-08-11T13:24:26;26.70;54.00
17968;DHT22;9109;48.050;11.696;2022-08-11T13:28:05;26.70;54.70
17968;DHT22;9109;48.050;11.696;2022-08-11T13:31:29;26.70;52.80
17968;DHT22;9109;48.050;11.696;2022-08-11T13:34:58;26.60;55.30
17968;DHT22;9109;48.050;11.696;2022-08-11T13:38:33;26.60;54.50
17968;DHT22;9109;48.050;11.696;2022-08-11T13:41:57;26.70;53.90
17968;DHT22;9109;48.050;11.696;2022-08-11T13:45:27;26.50;53.60
17968;DHT22;9109;48.050;11.696;2022-08-11T13:48:53;26.50;54.80
17968;DHT22;9109;48.050;11.696;2022-08-11T13:52:14;26.60;54.10
17968;DHT22;9109;48.050;11.696;2022-08-11T13:55:54;26.70;56.00
17968;DHT22;9109;48.050;11.696;2022-08-11T13:59:46;26.80;52.90
17968;DHT22;9109;48.050;11.696;2022-08-11T14:03:20;26.90;53.40
17968;DHT22;9109;48.050;11.696;2022-08-11T14:06:59;26.80;52.00
17968;DHT22;9109;48.050;11.696;2022-08-11T14:10:43;26.80;52.90
17968;DHT22;9109;48.050;11.696;2022-08-11T14:14:50;26.80;53.40
17968;DHT22;9109;48.050;11.696;2022-08-11T14:21:57;26.70;52.70
17968;DHT22;9109;48.050;11.696;2022-08-11T14:25:22;26.80;52.70
17968;DHT22;9109;48.050;11.696;2022-08-11T14:32:43;27.00;53.90
17968;DHT22;9109;48.050;11.696;2022-08-11T14:36:15;26.90;52.10
17968;DHT22;9109;48.050;11.696;2022-08-11T14:39:47;26.90;51.00
17968;DHT22;9109;48.050;11.696;2022-08-11T14:43:29;26.90;51.30
17968;DHT22;9109;48.050;11.696;2022-08-11T14:46:41;26.80;51.20
17968;DHT22;9109;48.050;11.696;2022-08-11T14:50:03;26.80;52.40
17968;DHT22;9109;48.050;11.696;2022-08-11T14:57:38;26.70;51.30
17968;DHT22;9109;48.050;11.696;2022-08-11T15:04:56;26.60;52.20
17968;DHT22;9109;48.050;11.696;2022-08-11T15:08:37;26.70;52.10
17968;DHT22;9109;48.050;11.696;2022-08-11T15:16:12;26.70;51.90
17968;DHT22;9109;48.050;11.696;2022-08-11T15:19:56;26.70;53.10
17968;DHT22;9109;48.050;11.696;2022-08-11T15:23:21;26.60;52.10
17968;DHT22;9109;48.050;11.696;2022-08-11T15:27:00;26.40;52.30
17968;DHT22;9109;48.050;11.696;2022-08-11T15:30:31;26.30;52.30
17968;DHT22;9109;48.050;11.696;2022-08-11T15:41:43;26.10;52.20
17968;DHT22;9109;48.050;11.696;2022-08-11T15:45:08;26.10;52.50
17968;DHT22;9109;48.050;11.696;2022-08-11T15:49:02;26.00;52.10
17968;DHT22;9109;48.050;11.696;2022-08-11T15:52:26;25.80;53.00
17968;DHT22;9109;48.050;11.696;2022-08-11T15:55:50;25.60;52.40
17968;DHT22;9109;48.050;11.696;2022-08-11T15:59:52;25.50;51.80
17968;DHT22;9109;48.050;11.696;2022-08-11T16:03:14;25.40;53.00
17968;DHT22;9109;48.050;11.696;2022-08-11T16:07:05;25.50;52.30
17968;DHT22;9109;48.050;11.696;2022-08-11T16:10:21;25.40;52.60
17968;DHT22;9109;48.050;11.696;2022-08-11T16:13:50;25.50;53.70
17968;DHT22;9109;48.050;11.696;2022-08-11T16:17:45;25.60;53.20
17968;DHT22;9109;48.050;11.696;2022-08-11T16:25:06;25.60;53.00
17968;DHT22;9109;48.050;11.696;2022-08-11T16:28:45;25.70;52.40
17968;DHT22;9109;48.050;11.696;2022-08-11T16:32:07;25.60;51.70
17968;DHT22;9109;48.050;11.696;2022-08-11T16:35:45;25.50;52.00
17968;DHT22;9109;48.050;11.696;2022-08-11T16:39:16;25.40;52.70
17968;DHT22;9109;48.050;11.696;2022-08-11T16:42:44;25.40;53.70
17968;DHT22;9109;48.050;11.696;2022-08-11T16:46:41;25.40;53.30
17968;DHT22;9109;48.050;11.696;2022-08-11T16:50:24;25.40;53.50
17968;DHT22;9109;48.050;11.696;2022-08-11T16:54:10;25.30;53.90
17968;DHT22;9109;48.050;11.696;2022-08-11T17:01:37;25.10;53.80
17968;DHT22;9109;48.050;11.696;2022-08-11T17:16:32;24.90;53.40
17968;DHT22;9109;48.050;11.696;2022-08-11T17:20:06;24.80;54.40
17968;DHT22;9109;48.050;11.696;2022-08-11T17:27:07;24.60;54.70
17968;DHT22;9109;48.050;11.696;2022-08-11T17:30:57;24.50;54.90
17968;DHT22;9109;48.050;11.696;2022-08-11T17:34:49;24.40;54.40
17968;DHT22;9109;48.050;11.696;2022-08-11T17:38:13;24.40;54.20
17968;DHT22;9109;48.050;11.696;2022-08-11T17:42:33;24.30;53.90
17968;DHT22;9109;48.050;11.696;2022-08-11T17:45:18;24.20;54.20
17968;DHT22;9109;48.050;11.696;2022-08-11T17:49:22;24.10;54.40
17968;DHT22;9109;48.050;11.696;2022-08-11T17:53:02;24.00;54.60
17968;DHT22;9109;48.050;11.696;2022-08-11T17:56:44;24.00;54.40
17968;DHT22;9109;48.050;11.696;2022-08-11T18:00:14;23.90;54.40
17968;DHT22;9109;48.050;11.696;2022-08-11T18:03:55;23.80;54.50
17968;DHT22;9109;48.050;11.696;2022-08-11T18:07:26;23.80;54.50
17968;DHT22;9109;48.050;11.696;2022-08-11T18:10:53;23.80;55.00
17968;DHT22;9109;48.050;11.696;2022-08-11T18:14:28;23.70;54.70
17968;DHT22;9109;48.050;11.696;2022-08-11T18:17:55;23.60;55.40
17968;DHT22;9109;48.050;11.696;2022-08-11T18:21:31;23.50;55.70
17968;DHT22;9109;48.050;11.696;2022-08-11T18:25:11;23.40;55.60
17968;DHT22;9109;48.050;11.696;2022-08-11T18:28:42;23.40;55.70
17968;DHT22;9109;48.050;11.696;2022-08-11T18:32:08;23.30;56.20
17968;DHT22;9109;48.050;11.696;2022-08-11T18:35:48;23.20;57.00
17968;DHT22;9109;48.050;11.696;2022-08-11T18:39:27;23.10;56.50
17968;DHT22;9109;48.050;11.696;2022-08-11T18:43:10;23.00;56.50
17968;DHT22;9109;48.050;11.696;2022-08-11T18:50:40;22.80;57.10
17968;DHT22;9109;48.050;11.696;2022-08-11T18:54:21;22.60;58.00
17968;DHT22;9109;48.050;11.696;2022-08-11T18:57:59;22.50;57.20
17968;DHT22;9109;48.050;11.696;2022-08-11T19:01:36;22.40;57.30
17968;DHT22;9109;48.050;11.696;2022-08-11T19:05:29;22.30;57.80
17968;DHT22;9109;48.050;11.696;2022-08-11T19:08:53;22.30;57.90
17968;DHT22;9109;48.050;11.696;2022-08-11T19:12:26;22.30;59.00
17968;DHT22;9109;48.050;11.696;2022-08-11T19:16:18;22.20;58.80
17968;DHT22;9109;48.050;11.696;2022-08-11T19:19:49;22.20;58.50
17968;DHT22;9109;48.050;11.696;2022-08-11T19:23:32;22.20;58.50
17968;DHT22;9109;48.050;11.696;2022-08-11T19:27:11;22.10;59.10
17968;DHT22;9109;48.050;11.696;2022-08-11T19:38:35;21.80;61.10
17968;DHT22;9109;48.050;11.696;2022-08-11T19:42:03;21.70;60.90
17968;DHT22;9109;48.050;11.696;2022-08-11T19:45:38;21.70;61.40
17968;DHT22;9109;48.050;11.696;2022-08-11T19:49:01;21.60;61.00
17968;DHT22;9109;48.050;11.696;2022-08-11T19:52:29;21.40;62.20
17968;DHT22;9109;48.050;11.696;2022-08-11T19:56:16;21.30;63.40
17968;DHT22;9109;48.050;11.696;2022-08-11T19:59:41;21.20;63.80
17968;DHT22;9109;48.050;11.696;2022-08-11T20:03:23;21.10;64.00
17968;DHT22;9109;48.050;11.696;2022-08-11T20:06:51;21.20;64.30
17968;DHT22;9109;48.050;11.696;2022-08-11T20:10:26;21.20;64.10
17968;DHT22;9109;48.050;11.696;2022-08-11T20:13:56;21.00;63.60
17968;DHT22;9109;48.050;11.696;2022-08-11T20:17:23;21.00;64.40
17968;DHT22;9109;48.050;11.696;2022-08-11T20:20:47;21.00;64.20
17968;DHT22;9109;48.050;11.696;2022-08-11T20:24:11;21.00;64.30
17968;DHT22;9109;48.050;11.696;2022-08-11T20:27:32;21.00;64.60
17968;DHT22;9109;48.050;11.696;2022-08-11T20:31:07;20.90;64.40
17968;DHT22;9109;48.050;11.696;2022-08-11T20:34:41;20.90;64.30
17968;DHT22;9109;48.050;11.696;2022-08-11T20:38:06;20.70;65.00
17968;DHT22;9109;48.050;11.696;2022-08-11T20:41:38;20.60;64.70
17968;DHT22;9109;48.050;11.696;2022-08-11T20:45:10;20.40;64.40
17968;DHT22;9109;48.050;11.696;2022-08-11T20:48:33;20.30;65.70
17968;DHT22;9109;48.050;11.696;2022-08-11T20:51:55;20.20;65.00
17968;DHT22;9109;48.050;11.696;2022-08-11T20:55:25;20.30;64.80
17968;DHT22;9109;48.050;11.696;2022-08-11T20:58:47;20.20;64.70
17968;DHT22;9109;48.050;11.696;2022-08-11T21:02:20;20.20;65.80
17968;DHT22;9109;48.050;11.696;2022-08-11T21:05:49;20.10;65.90
17968;DHT22;9109;48.050;11.696;2022-08-11T21:09:18;20.00;66.70
17968;DHT22;9109;48.050;11.696;2022-08-11T21:12:56;19.90;66.90
17968;DHT22;9109;48.050;11.696;2022-08-11T21:16:27;19.90;67.70
17968;DHT22;9109;48.050;11.696;2022-08-11T21:19:54;20.00;67.80
17968;DHT22;9109;48.050;11.696;2022-08-11T21:23:40;19.90;67.60
17968;DHT22;9109;48.050;11.696;2022-08-11T21:27:16;20.10;67.70
17968;DHT22;9109;48.050;11.696;2022-08-11T21:34:29;20.00;66.90
17968;DHT22;9109;48.050;11.696;2022-08-11T21:37:49;19.90;66.60
17968;DHT22;9109;48.050;11.696;2022-08-11T21:44:55;19.80;67.10
17968;DHT22;9109;48.050;11.696;2022-08-11T21:48:24;19.70;67.40
17968;DHT22;9109;48.050;11.696;2022-08-11T21:51:47;19.80;67.40
17968;DHT22;9109;48.050;11.696;2022-08-11T21:55:21;19.80;68.00
17968;DHT22;9109;48.050;11.696;2022-08-11T21:58:45;19.80;68.20
17968;DHT22;9109;48.050;11.696;2022-08-11T22:02:20;19.90;68.10
17968;DHT22;9109;48.050;11.696;2022-08-11T22:05:46;20.10;67.90
17968;DHT22;9109;48.050;11.696;2022-08-11T22:09:11;20.10;67.60
17968;DHT22;9109;48.050;11.696;2022-08-11T22:12:35;20.20;67.60
17968;DHT22;9109;48.050;11.696;2022-08-11T22:16:15;20.20;67.30
17968;DHT22;9109;48.050;11.696;2022-08-11T22:20:03;20.30;67.40
17968;DHT22;9109;48.050;11.696;2022-08-11T22:23:24;20.20;67.30
17968;DHT22;9109;48.050;11.696;2022-08-11T22:26:51;20.20;67.30
17968;DHT22;9109;48.050;11.696;2022-08-11T22:30:13;20.10;67.40
17968;DHT22;9109;48.050;11.696;2022-08-11T22:33:34;20.10;67.60
17968;DHT22;9109;48.050;11.696;2022-08-11T22:36:53;20.10;67.70
17968;DHT22;9109;48.050;11.696;2022-08-11T22:40:13;20.10;67.90
17968;DHT22;9109;48.050;11.696;2022-08-11T22:43:32;19.90;67.90
17968;DHT22;9109;48.050;11.696;2022-08-11T22:46:54;20.00;68.40
17968;DHT22;9109;48.050;11.696;2022-08-11T22:50:18;19.90;68.40
17968;DHT22;9109;48.050;11.696;2022-08-11T22:53:39;19.80;68.60
17968;DHT22;9109;48.050;11.696;2022-08-11T22:56:59;19.70;69.10
17968;DHT22;9109;48.050;11.696;2022-08-11T23:00:18;19.70;69.20
